sensor_id;sensor_type;location;lat;lon;timestamp;pressure;altitude;pressure_sealevel;temperature;humidity
11124;BME280;5616;42.692;23.312;2023-08-01T00:00:29;94789.66;;;22.21;65.03
11124;BME280;5616;42.692;23.312;2023-08-01T00:02:56;94799.94;;;22.23;64.77
11124;BME280;5616;42.692;23.312;2023-08-01T00:05:23;94801.78;;;22.22;65.11
11124;BME280;5616;42.692;23.312;2023-08-01T00:07:51;94805.19;;;22.23;64.47
11124;BME280;5616;42.692;23.312;2023-08-01T00:10:19;94801.47;;;22.14;64.88
11124;BME280;5616;42.692;23.312;2023-08-01T00:12:46;94792.00;;;22.08;65.44
11124;BME280;5616;42.692;23.312;2023-08-01T00:15:13;94799.63;;;22.09;65.74
11124;BME280;5616;42.692;23.312;2023-08-01T00:17:40;94793.06;;;22.12;64.94
11124;BME280;5616;42.692;23.312;2023-08-01T00:20:07;94797.25;;;22.13;65.12
11124;BME280;5616;42.692;23.312;2023-08-01T00:22:35;94790.97;;;22.14;65.04
11124;BME280;5616;42.692;23.312;2023-08-01T00:25:02;94793.06;;;22.12;65.25
11124;BME280;5616;42.692;23.312;2023-08-01T00:27:30;94789.94;;;22.15;65.13
11124;BME280;5616;42.692;23.312;2023-08-01T00:29:57;94785.97;;;22.17;65.10
11124;BME280;5616;42.692;23.312;2023-08-01T00:32:24;94785.19;;;22.17;64.96
11124;BME280;5616;42.692;23.312;2023-08-01T00:34:51;94782.56;;;22.17;64.86
11124;BME280;5616;42.692;23.312;2023-08-01T00:37:18;94789.13;;;22.19;64.87
11124;BME280;5616;42.692;23.312;2023-08-01T00:39:45;94789.13;;;22.19;64.36
11124;BME280;5616;42.692;23.312;2023-08-01T00:42:13;94786.25;;;22.21;64.61
11124;BME280;5616;42.692;23.312;2023-08-01T00:44:41;94796.75;;;22.21;64.09
11124;BME280;5616;42.692;23.312;2023-08-01T00:47:08;94786.50;;;22.19;64.45
11124;BME280;5616;42.692;23.312;2023-08-01T00:49:36;94783.59;;;22.21;63.81
11124;BME280;5616;42.692;23.312;2023-08-01T00:52:03;94780.72;;;22.22;63.72
11124;BME280;5616;42.692;23.312;2023-08-01T00:54:31;94782.56;;;22.22;63.91
11124;BME280;5616;42.692;23.312;2023-08-01T00:57:02;94779.66;;;22.23;63.61
11124;BME280;5616;42.692;23.312;2023-08-01T00:59:29;94777.03;;;22.23;63.38
11124;BME280;5616;42.692;23.312;2023-08-01T01:01:58;94778.13;;;22.27;63.45
11124;BME280;5616;42.692;23.312;2023-08-01T01:04:26;94780.47;;;22.29;63.33
11124;BME280;5616;42.692;23.312;2023-08-01T01:06:58;94776.81;;;22.30;62.90
11124;BME280;5616;42.692;23.312;2023-08-01T01:09:28;94779.41;;;22.20;62.97
11124;BME280;5616;42.692;23.312;2023-08-01T01:11:57;94778.63;;;22.19;62.79
11124;BME280;5616;42.692;23.312;2023-08-01T01:14:24;94774.69;;;22.22;62.49
11124;BME280;5616;42.692;23.312;2023-08-01T01:16:51;94768.91;;;22.20;62.54
11124;BME280;5616;42.692;23.312;2023-08-01T01:19:19;94767.06;;;22.20;62.24
11124;BME280;5616;42.692;23.312;2023-08-01T01:21:48;94764.94;;;22.17;62.50
11124;BME280;5616;42.692;23.312;2023-08-01T01:24:16;94761.25;;;22.18;62.25
11124;BME280;5616;42.692;23.312;2023-08-01T01:26:44;94758.63;;;22.18;61.84
11124;BME280;5616;42.692;23.312;2023-08-01T01:29:13;94755.97;;;22.13;62.26
11124;BME280;5616;42.692;23.312;2023-08-01T01:31:40;94757.81;;;22.13;62.08
11124;BME280;5616;42.692;23.312;2023-08-01T01:34:08;94764.38;;;22.15;61.83
11124;BME280;5616;42.692;23.312;2023-08-01T01:36:35;94756.25;;;22.17;62.14
11124;BME280;5616;42.692;23.312;2023-08-01T01:39:03;94750.72;;;22.13;61.70
11124;BME280;5616;42.692;23.312;2023-08-01T01:41:30;94752.56;;;22.13;62.07
11124;BME280;5616;42.692;23.312;2023-08-01T01:43:57;94755.16;;;22.03;62.66
11124;BME280;5616;42.692;23.312;2023-08-01T01:46:24;94749.38;;;22.01;62.40
11124;BME280;5616;42.692;23.312;2023-08-01T01:48:51;94754.63;;;21.96;62.75
11124;BME280;5616;42.692;23.312;2023-08-01T01:51:19;94758.84;;;21.97;61.85
11124;BME280;5616;42.692;23.312;2023-08-01T01:53:46;94759.63;;;21.97;62.55
11124;BME280;5616;42.692;23.312;2023-08-01T01:56:14;94765.66;;;21.92;61.76
11124;BME280;5616;42.692;23.312;2023-08-01T01:58:41;94771.94;;;21.91;62.19
11124;BME280;5616;42.692;23.312;2023-08-01T02:01:08;94774.31;;;21.88;61.84
11124;BME280;5616;42.692;23.312;2023-08-01T02:03:35;94770.81;;;21.72;63.13
11124;BME280;5616;42.692;23.312;2023-08-01T02:06:02;94762.38;;;21.70;63.74
11124;BME280;5616;42.692;23.312;2023-08-01T02:08:29;94759.75;;;21.65;64.05
11124;BME280;5616;42.692;23.312;2023-08-01T02:10:56;94752.13;;;21.64;63.70
11124;BME280;5616;42.692;23.312;2023-08-01T02:13:25;94753.72;;;21.65;62.66
11124;BME280;5616;42.692;23.312;2023-08-01T02:15:53;94753.94;;;21.63;62.75
11124;BME280;5616;42.692;23.312;2023-08-01T02:18:20;94763.41;;;21.59;63.21
11124;BME280;5616;42.692;23.312;2023-08-01T02:20:47;94762.63;;;21.59;63.00
11124;BME280;5616;42.692;23.312;2023-08-01T02:23:14;94757.53;;;21.42;63.53
11124;BME280;5616;42.692;23.312;2023-08-01T02:25:41;94763.25;;;21.29;64.87
11124;BME280;5616;42.692;23.312;2023-08-01T02:28:08;94758.94;;;21.13;65.13
11124;BME280;5616;42.692;23.312;2023-08-01T02:30:37;94757.91;;;21.14;64.90
11124;BME280;5616;42.692;23.312;2023-08-01T02:33:04;94758.22;;;21.17;65.23
11124;BME280;5616;42.692;23.312;2023-08-01T02:35:30;94750.53;;;21.11;65.37
11124;BME280;5616;42.692;23.312;2023-08-01T02:37:57;94754.41;;;21.03;65.66
11124;BME280;5616;42.692;23.312;2023-08-01T02:40:24;94756.31;;;21.13;65.08
11124;BME280;5616;42.692;23.312;2023-08-01T02:42:52;94748.94;;;21.10;65.54
11124;BME280;5616;42.692;23.312;2023-08-01T02:45:20;94749.41;;;21.02;65.87
11124;BME280;5616;42.692;23.312;2023-08-01T02:47:49;94754.66;;;21.02;65.79
11124;BME280;5616;42.692;23.312;2023-08-01T02:50:16;94748.41;;;21.08;65.13
11124;BME280;5616;42.692;23.312;2023-08-01T02:52:43;94755.56;;;21.12;64.71
11124;BME280;5616;42.692;23.312;2023-08-01T02:55:10;94756.34;;;21.18;64.57
11124;BME280;5616;42.692;23.312;2023-08-01T02:57:37;94750.44;;;21.01;65.07
11124;BME280;5616;42.692;23.312;2023-08-01T03:00:05;94754.66;;;21.02;65.38
11124;BME280;5616;42.692;23.312;2023-08-01T03:02:37;94759.09;;;20.96;65.67
11124;BME280;5616;42.692;23.312;2023-08-01T03:05:10;94762.44;;;20.92;66.16
11124;BME280;5616;42.692;23.312;2023-08-01T03:07:38;94770.34;;;20.97;65.47
11124;BME280;5616;42.692;23.312;2023-08-01T03:10:05;94768.28;;;20.99;64.98
11124;BME280;5616;42.692;23.312;2023-08-01T03:12:32;94764.53;;;20.90;65.78
11124;BME280;5616;42.692;23.312;2023-08-01T03:14:59;94756.13;;;20.88;66.10
11124;BME280;5616;42.692;23.312;2023-08-01T03:17:26;94751.09;;;20.81;66.00
11124;BME280;5616;42.692;23.312;2023-08-01T03:19:52;94761.25;;;20.67;66.98
11124;BME280;5616;42.692;23.312;2023-08-01T03:22:21;94763.81;;;20.62;66.87
11124;BME280;5616;42.692;23.312;2023-08-01T03:24:49;94764.34;;;20.59;67.44
11124;BME280;5616;42.692;23.312;2023-08-01T03:27:15;94771.38;;;20.54;66.92
11124;BME280;5616;42.692;23.312;2023-08-01T03:29:43;94771.66;;;20.62;66.85
11124;BME280;5616;42.692;23.312;2023-08-01T03:32:10;94768.91;;;20.74;66.65
11124;BME280;5616;42.692;23.312;2023-08-01T03:34:35;94766.22;;;20.69;66.77
11124;BME280;5616;42.692;23.312;2023-08-01T03:37:04;94771.50;;;20.74;65.83
11124;BME280;5616;42.692;23.312;2023-08-01T03:39:32;94776.28;;;20.77;66.06
11124;BME280;5616;42.692;23.312;2023-08-01T03:41:59;94776.56;;;20.81;66.77
11124;BME280;5616;42.692;23.312;2023-08-01T03:44:26;94778.66;;;20.84;67.54
11124;BME280;5616;42.692;23.312;2023-08-01T03:46:53;94755.41;;;20.60;68.54
11124;BME280;5616;42.692;23.312;2023-08-01T03:49:20;94784.34;;;20.70;69.05
11124;BME280;5616;42.692;23.312;2023-08-01T03:51:47;94783.00;;;20.68;69.52
11124;BME280;5616;42.692;23.312;2023-08-01T03:54:14;94779.81;;;20.61;69.78
11124;BME280;5616;42.692;23.312;2023-08-01T03:56:42;94787.06;;;20.49;70.67
11124;BME280;5616;42.692;23.312;2023-08-01T03:59:10;94784.94;;;20.46;70.41
11124;BME280;5616;42.692;23.312;2023-08-01T04:01:37;94787.16;;;20.32;70.77
11124;BME280;5616;42.692;23.312;2023-08-01T04:04:04;94791.06;;;20.30;70.68
11124;BME280;5616;42.692;23.312;2023-08-01T04:06:32;94796.25;;;20.25;71.62
11124;BME280;5616;42.692;23.312;2023-08-01T04:08:59;94791.47;;;20.22;71.46
11124;BME280;5616;42.692;23.312;2023-08-01T04:11:26;94783.94;;;20.25;71.31
11124;BME280;5616;42.692;23.312;2023-08-01T04:13:56;94790.94;;;20.20;71.86
11124;BME280;5616;42.692;23.312;2023-08-01T04:16:23;94789.19;;;20.25;71.18
11124;BME280;5616;42.692;23.312;2023-08-01T04:18:50;94795.50;;;20.29;70.75
11124;BME280;5616;42.692;23.312;2023-08-01T04:21:18;94791.06;;;20.30;70.74
11124;BME280;5616;42.692;23.312;2023-08-01T04:23:44;94800.94;;;20.23;70.89
11124;BME280;5616;42.692;23.312;2023-08-01T04:26:11;94798.53;;;20.21;71.30
11124;BME280;5616;42.692;23.312;2023-08-01T04:28:38;94801.69;;;20.23;71.09
11124;BME280;5616;42.692;23.312;2023-08-01T04:31:06;94796.00;;;20.26;70.59
11124;BME280;5616;42.692;23.312;2023-08-01T04:33:33;94793.16;;;20.28;70.28
11124;BME280;5616;42.692;23.312;2023-08-01T04:36:00;94800.44;;;20.26;70.11
11124;BME280;5616;42.692;23.312;2023-08-01T04:38:27;94796.53;;;20.28;70.00
11124;BME280;5616;42.692;23.312;2023-08-01T04:40:54;94807.03;;;20.28;70.45
11124;BME280;5616;42.692;23.312;2023-08-01T04:43:21;94798.50;;;20.38;69.74
11124;BME280;5616;42.692;23.312;2023-08-01T04:45:47;94791.84;;;20.57;68.90
11124;BME280;5616;42.692;23.312;2023-08-01T04:48:16;94787.38;;;20.57;69.60
11124;BME280;5616;42.692;23.312;2023-08-01T04:50:42;94788.22;;;20.63;68.22
11124;BME280;5616;42.692;23.312;2023-08-01T04:53:11;94782.81;;;20.74;67.46
11124;BME280;5616;42.692;23.312;2023-08-01T04:55:37;94780.53;;;20.83;67.28
11124;BME280;5616;42.692;23.312;2023-08-01T04:58:04;94780.59;;;20.93;66.71
11124;BME280;5616;42.692;23.312;2023-08-01T05:00:31;94780.59;;;20.93;66.15
11124;BME280;5616;42.692;23.312;2023-08-01T05:02:58;94786.44;;;21.05;65.73
11124;BME280;5616;42.692;23.312;2023-08-01T05:05:26;94786.81;;;21.14;65.42
11124;BME280;5616;42.692;23.312;2023-08-01T05:07:53;94785.75;;;21.15;65.78
11124;BME280;5616;42.692;23.312;2023-08-01T05:10:20;94785.31;;;21.28;64.83
11124;BME280;5616;42.692;23.312;2023-08-01T05:12:47;94784.31;;;21.39;64.26
11124;BME280;5616;42.692;23.312;2023-08-01T05:15:14;94786.47;;;21.47;64.12
11124;BME280;5616;42.692;23.312;2023-08-01T05:17:40;94790.50;;;21.65;64.19
11124;BME280;5616;42.692;23.312;2023-08-01T05:20:08;94796.47;;;21.55;65.09
11124;BME280;5616;42.692;23.312;2023-08-01T05:22:36;94796.22;;;21.52;64.84
11124;BME280;5616;42.692;23.312;2023-08-01T05:25:03;94797.63;;;21.69;64.47
11124;BME280;5616;42.692;23.312;2023-08-01T05:27:30;94797.66;;;21.84;63.20
11124;BME280;5616;42.692;23.312;2023-08-01T05:29:59;94792.25;;;22.06;61.08
11124;BME280;5616;42.692;23.312;2023-08-01T05:32:26;94789.41;;;22.18;60.67
11124;BME280;5616;42.692;23.312;2023-08-01T05:34:52;94801.53;;;22.34;60.02
11124;BME280;5616;42.692;23.312;2023-08-01T05:37:19;94800.00;;;22.53;59.72
11124;BME280;5616;42.692;23.312;2023-08-01T05:39:47;94793.72;;;22.69;58.79
11124;BME280;5616;42.692;23.312;2023-08-01T05:42:14;94790.84;;;22.91;59.58
11124;BME280;5616;42.692;23.312;2023-08-01T05:44:41;94792.91;;;23.09;58.52
11124;BME280;5616;42.692;23.312;2023-08-01T05:47:08;94794.22;;;23.27;57.57
11124;BME280;5616;42.692;23.312;2023-08-01T05:49:35;94778.41;;;23.27;58.54
11124;BME280;5616;42.692;23.312;2023-08-01T05:52:02;94788.94;;;23.22;57.10
11124;BME280;5616;42.692;23.312;2023-08-01T05:54:29;94787.38;;;23.41;56.25
11124;BME280;5616;42.692;23.312;2023-08-01T05:56:57;94786.31;;;23.47;56.56
11124;BME280;5616;42.692;23.312;2023-08-01T05:59:24;94785.69;;;23.75;53.93
11124;BME280;5616;42.692;23.312;2023-08-01T06:01:50;94789.31;;;23.94;53.34
11124;BME280;5616;42.692;23.312;2023-08-01T06:04:17;94788.72;;;24.12;52.71
11124;BME280;5616;42.692;23.312;2023-08-01T06:06:44;94786.25;;;24.26;51.28
11124;BME280;5616;42.692;23.312;2023-08-01T06:09:11;94778.75;;;24.48;52.49
11124;BME280;5616;42.692;23.312;2023-08-01T06:11:38;94774.31;;;24.77;50.02
11124;BME280;5616;42.692;23.312;2023-08-01T06:14:06;94774.25;;;25.16;48.89
11124;BME280;5616;42.692;23.312;2023-08-01T06:16:33;94784.81;;;25.16;49.83
11124;BME280;5616;42.692;23.312;2023-08-01T06:19:00;94781.97;;;25.41;47.50
11124;BME280;5616;42.692;23.312;2023-08-01T06:21:27;94776.66;;;25.70;46.67
11124;BME280;5616;42.692;23.312;2023-08-01T06:23:54;94776.69;;;25.89;48.04
11124;BME280;5616;42.692;23.312;2023-08-01T06:26:20;94775.09;;;25.88;47.64
11124;BME280;5616;42.692;23.312;2023-08-01T06:28:47;94768.69;;;26.36;44.34
11124;BME280;5616;42.692;23.312;2023-08-01T06:31:15;94769.16;;;26.76;43.46
11124;BME280;5616;42.692;23.312;2023-08-01T06:33:42;94776.97;;;27.18;43.81
11124;BME280;5616;42.692;23.312;2023-08-01T06:36:09;94765.03;;;27.34;43.10
11124;BME280;5616;42.692;23.312;2023-08-01T06:38:36;94771.53;;;27.55;43.50
11124;BME280;5616;42.692;23.312;2023-08-01T06:41:03;94766.03;;;27.92;42.51
11124;BME280;5616;42.692;23.312;2023-08-01T06:43:30;94767.09;;;28.19;42.06
11124;BME280;5616;42.692;23.312;2023-08-01T06:45:56;94768.00;;;27.87;43.11
11124;BME280;5616;42.692;23.312;2023-08-01T06:48:25;94771.34;;;28.20;41.51
11124;BME280;5616;42.692;23.312;2023-08-01T06:50:52;94767.91;;;28.55;41.38
11124;BME280;5616;42.692;23.312;2023-08-01T06:53:18;94764.38;;;29.04;40.05
11124;BME280;5616;42.692;23.312;2023-08-01T06:55:46;94762.31;;;29.54;37.86
11124;BME280;5616;42.692;23.312;2023-08-01T06:58:13;94770.50;;;30.05;37.05
11124;BME280;5616;42.692;23.312;2023-08-01T07:00:40;94761.31;;;30.46;36.49
11124;BME280;5616;42.692;23.312;2023-08-01T07:03:07;94769.31;;;30.80;35.72
11124;BME280;5616;42.692;23.312;2023-08-01T07:05:35;94760.22;;;31.07;34.98
11124;BME280;5616;42.692;23.312;2023-08-01T07:08:03;94760.38;;;31.02;35.29
11124;BME280;5616;42.692;23.312;2023-08-01T07:10:30;94760.31;;;31.36;34.58
11124;BME280;5616;42.692;23.312;2023-08-01T07:12:57;94755.25;;;31.89;33.94
11124;BME280;5616;42.692;23.312;2023-08-01T07:15:23;94766.69;;;32.48;34.07
11124;BME280;5616;42.692;23.312;2023-08-01T07:17:51;94752.09;;;32.66;34.03
11124;BME280;5616;42.692;23.312;2023-08-01T07:20:18;94756.59;;;32.75;31.89
11124;BME280;5616;42.692;23.312;2023-08-01T07:22:46;94748.66;;;32.99;31.42
11124;BME280;5616;42.692;23.312;2023-08-01T07:25:13;94749.06;;;33.54;30.69
11124;BME280;5616;42.692;23.312;2023-08-01T07:27:41;94740.72;;;34.04;30.83
11124;BME280;5616;42.692;23.312;2023-08-01T07:30:08;94745.28;;;34.40;29.92
11124;BME280;5616;42.692;23.312;2023-08-01T07:32:36;94739.16;;;34.79;29.99
11124;BME280;5616;42.692;23.312;2023-08-01T07:35:04;94741.25;;;35.14;28.43
11124;BME280;5616;42.692;23.312;2023-08-01T07:37:32;94736.81;;;35.65;27.87
11124;BME280;5616;42.692;23.312;2023-08-01T07:40:00;94734.78;;;36.43;27.50
11124;BME280;5616;42.692;23.312;2023-08-01T07:42:27;94737.75;;;37.53;26.43
11124;BME280;5616;42.692;23.312;2023-08-01T07:44:55;94741.63;;;38.83;23.76
11124;BME280;5616;42.692;23.312;2023-08-01T07:47:22;94738.75;;;40.30;22.07
11124;BME280;5616;42.692;23.312;2023-08-01T07:49:49;94749.78;;;42.19;21.16
11124;BME280;5616;42.692;23.312;2023-08-01T07:52:16;94759.47;;;43.46;18.78
11124;BME280;5616;42.692;23.312;2023-08-01T07:54:43;94749.03;;;44.36;18.17
11124;BME280;5616;42.692;23.312;2023-08-01T07:57:11;94749.16;;;44.63;17.91
11124;BME280;5616;42.692;23.312;2023-08-01T07:59:38;94749.53;;;43.07;19.23
11124;BME280;5616;42.692;23.312;2023-08-01T08:02:05;94737.25;;;44.47;18.43
11124;BME280;5616;42.692;23.312;2023-08-01T08:04:32;94740.91;;;45.88;16.93
11124;BME280;5616;42.692;23.312;2023-08-01T08:06:59;94743.69;;;47.13;16.71
11124;BME280;5616;42.692;23.312;2023-08-01T08:09:26;94748.56;;;46.86;16.29
11124;BME280;5616;42.692;23.312;2023-08-01T08:11:53;94733.63;;;47.46;15.74
11124;BME280;5616;42.692;23.312;2023-08-01T08:14:24;94741.84;;;46.24;15.91
11124;BME280;5616;42.692;23.312;2023-08-01T08:16:51;94737.69;;;45.93;16.70
11124;BME280;5616;42.692;23.312;2023-08-01T08:19:17;94728.84;;;46.94;16.19
11124;BME280;5616;42.692;23.312;2023-08-01T08:21:44;94726.28;;;45.98;17.12
11124;BME280;5616;42.692;23.312;2023-08-01T08:24:11;94732.75;;;46.54;15.92
11124;BME280;5616;42.692;23.312;2023-08-01T08:26:38;94727.78;;;45.79;16.75
11124;BME280;5616;42.692;23.312;2023-08-01T08:29:05;94720.00;;;44.94;17.17
11124;BME280;5616;42.692;23.312;2023-08-01T08:31:33;94715.34;;;45.21;16.95
11124;BME280;5616;42.692;23.312;2023-08-01T08:34:01;94718.28;;;45.64;17.54
11124;BME280;5616;42.692;23.312;2023-08-01T08:36:28;94704.72;;;44.36;17.77
11124;BME280;5616;42.692;23.312;2023-08-01T08:38:54;94706.03;;;43.73;18.79
11124;BME280;5616;42.692;23.312;2023-08-01T08:41:24;94703.16;;;44.69;17.75
11124;BME280;5616;42.692;23.312;2023-08-01T08:43:55;94697.91;;;44.88;17.57
11124;BME280;5616;42.692;23.312;2023-08-01T08:46:27;94693.09;;;44.66;18.77
11124;BME280;5616;42.692;23.312;2023-08-01T08:48:56;94701.59;;;43.93;18.67
11124;BME280;5616;42.692;23.312;2023-08-01T08:51:24;94685.69;;;42.57;19.62
11124;BME280;5616;42.692;23.312;2023-08-01T08:53:53;94688.03;;;43.90;18.53
11124;BME280;5616;42.692;23.312;2023-08-01T08:56:21;94690.66;;;44.75;17.60
11124;BME280;5616;42.692;23.312;2023-08-01T08:58:49;94686.19;;;45.18;17.14
11124;BME280;5616;42.692;23.312;2023-08-01T09:01:17;94679.31;;;45.64;16.86
11124;BME280;5616;42.692;23.312;2023-08-01T09:03:44;94683.81;;;43.27;20.13
11124;BME280;5616;42.692;23.312;2023-08-01T09:06:15;94675.38;;;45.11;17.21
11124;BME280;5616;42.692;23.312;2023-08-01T09:08:50;94676.94;;;45.39;16.86
11124;BME280;5616;42.692;23.312;2023-08-01T09:11:17;94670.06;;;46.24;16.75
11124;BME280;5616;42.692;23.312;2023-08-01T09:13:44;94665.91;;;46.39;16.42
11124;BME280;5616;42.692;23.312;2023-08-01T09:16:11;94662.31;;;46.22;17.24
11124;BME280;5616;42.692;23.312;2023-08-01T09:18:47;94670.91;;;45.24;16.70
11124;BME280;5616;42.692;23.312;2023-08-01T09:21:17;94657.78;;;45.69;16.74
11124;BME280;5616;42.692;23.312;2023-08-01T09:23:44;94660.00;;;43.45;18.56
11124;BME280;5616;42.692;23.312;2023-08-01T09:26:14;94658.66;;;42.22;20.08
11124;BME280;5616;42.692;23.312;2023-08-01T09:28:41;94650.28;;;39.77;21.82
11124;BME280;5616;42.692;23.312;2023-08-01T09:31:10;94649.66;;;37.83;24.25
11124;BME280;5616;42.692;23.312;2023-08-01T09:33:38;94645.41;;;37.82;23.40
11124;BME280;5616;42.692;23.312;2023-08-01T09:36:06;94640.81;;;36.92;24.84
11124;BME280;5616;42.692;23.312;2023-08-01T09:38:36;94635.78;;;36.49;26.88
11124;BME280;5616;42.692;23.312;2023-08-01T09:41:04;94634.81;;;35.52;27.33
11124;BME280;5616;42.692;23.312;2023-08-01T09:43:35;94633.69;;;34.63;28.92
11124;BME280;5616;42.692;23.312;2023-08-01T09:46:02;94635.34;;;33.52;31.61
11124;BME280;5616;42.692;23.312;2023-08-01T09:48:30;94630.63;;;33.00;31.85
11124;BME280;5616;42.692;23.312;2023-08-01T09:51:08;94629.59;;;32.81;33.06
11124;BME280;5616;42.692;23.312;2023-08-01T09:53:46;94621.44;;;32.44;32.44
11124;BME280;5616;42.692;23.312;2023-08-01T09:56:14;94606.56;;;32.35;32.37
11124;BME280;5616;42.692;23.312;2023-08-01T09:58:43;94608.00;;;32.32;33.11
11124;BME280;5616;42.692;23.312;2023-08-01T10:01:10;94604.66;;;32.23;33.52
11124;BME280;5616;42.692;23.312;2023-08-01T10:03:38;94610.19;;;31.97;33.20
11124;BME280;5616;42.692;23.312;2023-08-01T10:06:05;94599.03;;;31.75;34.08
11124;BME280;5616;42.692;23.312;2023-08-01T10:08:32;94596.50;;;31.99;35.50
11124;BME280;5616;42.692;23.312;2023-08-01T10:11:04;94584.03;;;31.82;34.63
11124;BME280;5616;42.692;23.312;2023-08-01T10:13:32;94594.03;;;31.94;35.06
11124;BME280;5616;42.692;23.312;2023-08-01T10:15:59;94586.66;;;32.12;34.61
11124;BME280;5616;42.692;23.312;2023-08-01T10:18:28;94582.75;;;31.68;36.47
11124;BME280;5616;42.692;23.312;2023-08-01T10:20:56;94583.69;;;31.92;35.12
11124;BME280;5616;42.692;23.312;2023-08-01T10:23:24;94590.78;;;32.09;34.27
11124;BME280;5616;42.692;23.312;2023-08-01T10:25:52;94574.53;;;32.14;33.36
11124;BME280;5616;42.692;23.312;2023-08-01T10:28:30;94572.41;;;32.08;34.46
11124;BME280;5616;42.692;23.312;2023-08-01T10:31:07;94565.34;;;32.24;32.98
11124;BME280;5616;42.692;23.312;2023-08-01T10:33:34;94565.66;;;32.22;34.24
11124;BME280;5616;42.692;23.312;2023-08-01T10:36:01;94567.84;;;32.08;32.94
11124;BME280;5616;42.692;23.312;2023-08-01T10:38:44;94565.88;;;32.17;32.72
11124;BME280;5616;42.692;23.312;2023-08-01T10:41:18;94560.41;;;31.93;33.35
11124;BME280;5616;42.692;23.312;2023-08-01T10:43:47;94566.59;;;31.85;33.11
11124;BME280;5616;42.692;23.312;2023-08-01T10:46:13;94561.66;;;31.54;35.99
11124;BME280;5616;42.692;23.312;2023-08-01T10:48:48;94539.41;;;31.41;33.50
11124;BME280;5616;42.692;23.312;2023-08-01T10:51:15;94552.00;;;31.32;33.88
11124;BME280;5616;42.692;23.312;2023-08-01T10:53:42;94542.97;;;31.25;34.76
11124;BME280;5616;42.692;23.312;2023-08-01T10:56:16;94544.81;;;31.33;34.28
11124;BME280;5616;42.692;23.312;2023-08-01T10:58:43;94541.53;;;31.27;33.83
11124;BME280;5616;42.692;23.312;2023-08-01T11:01:12;94533.56;;;31.19;35.00
11124;BME280;5616;42.692;23.312;2023-08-01T11:03:39;94533.47;;;31.15;33.09
11124;BME280;5616;42.692;23.312;2023-08-01T11:06:07;94523.66;;;30.90;33.58
11124;BME280;5616;42.692;23.312;2023-08-01T11:08:35;94528.09;;;30.86;36.40
11124;BME280;5616;42.692;23.312;2023-08-01T11:11:03;94520.38;;;30.84;36.06
11124;BME280;5616;42.692;23.312;2023-08-01T11:13:31;94521.97;;;30.94;33.32
11124;BME280;5616;42.692;23.312;2023-08-01T11:16:01;94518.66;;;30.88;34.06
11124;BME280;5616;42.692;23.312;2023-08-01T11:18:30;94508.28;;;30.96;33.96
11124;BME280;5616;42.692;23.312;2023-08-01T11:20:57;94505.72;;;31.08;33.38
11124;BME280;5616;42.692;23.312;2023-08-01T11:23:28;94499.63;;;31.07;33.27
11124;BME280;5616;42.692;23.312;2023-08-01T11:25:55;94494.47;;;31.02;33.21
11124;BME280;5616;42.692;23.312;2023-08-01T11:28:22;94496.94;;;31.07;34.12
11124;BME280;5616;42.692;23.312;2023-08-01T11:30:50;94494.94;;;31.25;35.34
11124;BME280;5616;42.692;23.312;2023-08-01T11:33:19;94496.53;;;31.46;32.93
11124;BME280;5616;42.692;23.312;2023-08-01T11:35:51;94487.69;;;31.55;33.09
11124;BME280;5616;42.692;23.312;2023-08-01T11:38:19;94487.44;;;31.48;32.41
11124;BME280;5616;42.692;23.312;2023-08-01T11:40:47;94484.81;;;31.39;32.21
11124;BME280;5616;42.692;23.312;2023-08-01T11:43:15;94478.56;;;31.56;33.04
11124;BME280;5616;42.692;23.312;2023-08-01T11:45:52;94475.63;;;31.69;34.51
11124;BME280;5616;42.692;23.312;2023-08-01T11:48:20;94471.47;;;31.60;32.42
11124;BME280;5616;42.692;23.312;2023-08-01T11:50:47;94472.53;;;31.79;33.23
11124;BME280;5616;42.692;23.312;2023-08-01T11:53:19;94465.59;;;31.87;30.37
11124;BME280;5616;42.692;23.312;2023-08-01T11:55:47;94467.13;;;31.88;29.67
11124;BME280;5616;42.692;23.312;2023-08-01T11:58:14;94465.88;;;31.73;30.74
11124;BME280;5616;42.692;23.312;2023-08-01T12:00:41;94464.19;;;31.69;30.15
11124;BME280;5616;42.692;23.312;2023-08-01T12:03:09;94446.09;;;31.86;30.16
11124;BME280;5616;42.692;23.312;2023-08-01T12:05:39;94455.09;;;31.82;29.82
11124;BME280;5616;42.692;23.312;2023-08-01T12:08:12;94439.84;;;31.50;30.44
11124;BME280;5616;42.692;23.312;2023-08-01T12:10:42;94440.81;;;31.66;29.83
11124;BME280;5616;42.692;23.312;2023-08-01T12:13:19;94441.00;;;31.61;30.50
11124;BME280;5616;42.692;23.312;2023-08-01T12:15:47;94440.25;;;31.72;32.63
11124;BME280;5616;42.692;23.312;2023-08-01T12:18:20;94437.16;;;31.82;31.46
11124;BME280;5616;42.692;23.312;2023-08-01T12:20:47;94433.06;;;32.05;30.58
11124;BME280;5616;42.692;23.312;2023-08-01T12:23:13;94432.13;;;32.01;28.80
11124;BME280;5616;42.692;23.312;2023-08-01T12:25:42;94432.38;;;32.08;28.15
11124;BME280;5616;42.692;23.312;2023-08-01T12:28:09;94429.97;;;32.28;28.64
11124;BME280;5616;42.692;23.312;2023-08-01T12:30:35;94415.19;;;32.42;29.11
11124;BME280;5616;42.692;23.312;2023-08-01T12:33:02;94421.41;;;32.58;28.77
11124;BME280;5616;42.692;23.312;2023-08-01T12:35:29;94418.31;;;32.56;28.61
11124;BME280;5616;42.692;23.312;2023-08-01T12:37:56;94415.75;;;32.60;27.95
11124;BME280;5616;42.692;23.312;2023-08-01T12:40:23;94416.06;;;32.58;28.87
11124;BME280;5616;42.692;23.312;2023-08-01T12:42:51;94410.50;;;32.39;26.25
11124;BME280;5616;42.692;23.312;2023-08-01T12:45:18;94398.22;;;32.14;26.68
11124;BME280;5616;42.692;23.312;2023-08-01T12:47:46;94396.09;;;32.20;29.45
11124;BME280;5616;42.692;23.312;2023-08-01T12:50:12;94397.56;;;32.29;28.83
11124;BME280;5616;42.692;23.312;2023-08-01T12:52:39;94389.19;;;32.43;24.24
11124;BME280;5616;42.692;23.312;2023-08-01T12:55:07;94385.31;;;32.28;27.94
11124;BME280;5616;42.692;23.312;2023-08-01T12:57:33;94403.13;;;32.48;30.73
11124;BME280;5616;42.692;23.312;2023-08-01T13:00:02;94407.84;;;32.63;27.46
11124;BME280;5616;42.692;23.312;2023-08-01T13:02:29;94395.56;;;32.50;28.30